createdAt,value
2023-05-11T00:00:07.588Z,2.28
2023-05-11T00:03:10.851Z,1.90
2023-05-11T00:06:14.104Z,1.88
2023-05-11T00:09:17.106Z,2.13
2023-05-11T00:12:20.139Z,2.20
2023-05-11T00:15:23.253Z,2.00
2023-05-11T00:18:26.309Z,2.30
2023-05-11T00:21:29.276Z,2.10
2023-05-11T00:24:32.224Z,2.40
2023-05-11T00:27:35.175Z,2.63
2023-05-11T00:30:39.722Z,1.95
2023-05-11T00:33:42.689Z,1.90
2023-05-11T00:36:45.938Z,2.47
2023-05-11T00:39:49.012Z,2.20
2023-05-11T00:42:51.963Z,1.90
2023-05-11T00:45:54.964Z,2.15
2023-05-11T00:48:57.982Z,2.10
2023-05-11T00:52:03.100Z,2.30
2023-05-11T00:55:06.759Z,2.10
2023-05-11T00:58:09.678Z,2.20
2023-05-11T01:01:14.118Z,2.00
2023-05-11T01:04:17.164Z,2.23
2023-05-11T01:07:26.384Z,2.30
2023-05-11T01:10:41.983Z,2.28
2023-05-11T01:13:48.826Z,2.65
2023-05-11T01:16:56.133Z,2.60
2023-05-11T01:20:04.124Z,2.40
2023-05-11T01:23:25.884Z,2.55
2023-05-11T01:26:40.548Z,2.63
2023-05-11T01:29:46.224Z,2.40
2023-05-11T01:32:49.228Z,1.98
2023-05-11T01:35:53.546Z,2.00
2023-05-11T01:38:56.872Z,2.28
2023-05-11T01:41:59.901Z,2.40
2023-05-11T01:45:03.178Z,3.05
2023-05-11T01:48:09.723Z,2.40
2023-05-11T01:51:12.743Z,2.03
2023-05-11T01:54:15.874Z,2.17
2023-05-11T01:57:18.842Z,2.40
2023-05-11T02:00:21.822Z,2.05
2023-05-11T02:03:24.877Z,2.30
2023-05-11T02:06:27.884Z,2.00
2023-05-11T02:09:31.909Z,2.03
2023-05-11T02:12:35.542Z,2.30
2023-05-11T02:15:41.642Z,2.42
2023-05-11T02:18:44.700Z,2.28
2023-05-11T02:21:47.759Z,2.60
2023-05-11T02:24:50.757Z,2.50
2023-05-11T02:27:53.786Z,3.08
2023-05-11T02:30:59.513Z,2.10
2023-05-11T02:34:09.953Z,2.20
2023-05-11T02:37:17.883Z,2.23
2023-05-11T02:40:24.107Z,2.35
2023-05-11T02:43:29.739Z,2.33
2023-05-11T02:46:38.558Z,1.85
2023-05-11T02:49:41.826Z,2.40
2023-05-11T02:52:47.139Z,2.40
2023-05-11T02:55:50.936Z,2.30
2023-05-11T02:58:54.084Z,2.50
2023-05-11T03:02:00.423Z,2.30
2023-05-11T03:05:04.809Z,2.28
2023-05-11T03:08:07.926Z,2.70
2023-05-11T03:11:11.219Z,2.50
2023-05-11T03:14:14.986Z,2.60
2023-05-11T03:17:19.101Z,2.42
2023-05-11T03:20:22.245Z,2.42
2023-05-11T03:23:25.285Z,2.30
2023-05-11T03:26:30.113Z,2.63
2023-05-11T03:29:34.636Z,2.65
2023-05-11T03:32:37.847Z,2.20
2023-05-11T03:35:41.430Z,2.60
2023-05-11T03:38:46.491Z,2.50
2023-05-11T03:41:52.410Z,2.45
2023-05-11T03:44:58.557Z,2.30
2023-05-11T03:48:01.991Z,2.78
2023-05-11T03:51:06.392Z,2.30
2023-05-11T03:54:09.363Z,2.57
2023-05-11T03:57:13.310Z,2.03
2023-05-11T04:00:17.167Z,2.70
2023-05-11T04:03:21.211Z,2.38
2023-05-11T04:06:24.464Z,2.58
2023-05-11T04:09:35.297Z,2.50
2023-05-11T04:12:38.293Z,2.35
2023-05-11T04:15:41.268Z,2.92
2023-05-11T04:18:44.386Z,2.55
2023-05-11T04:36:41.268Z,2.38
2023-05-11T04:39:58.064Z,2.35
2023-05-11T04:43:01.312Z,2.92
2023-05-11T04:53:50.494Z,2.60
2023-05-11T04:57:22.402Z,2.63
2023-05-11T05:06:29.440Z,3.27
2023-05-11T05:09:51.067Z,3.00
2023-05-11T05:13:06.736Z,2.72
2023-05-11T05:16:09.730Z,3.08
2023-05-11T05:19:13.025Z,2.90
2023-05-11T05:22:16.591Z,3.27
2023-05-11T05:25:19.601Z,3.10
2023-05-11T05:28:22.601Z,3.40
2023-05-11T05:31:25.824Z,3.38
2023-05-11T05:34:29.212Z,3.30
2023-05-11T05:37:32.404Z,2.83
2023-05-11T05:40:37.734Z,3.10
2023-05-11T05:43:41.064Z,3.22
2023-05-11T05:46:44.289Z,2.75
2023-05-11T05:49:47.737Z,3.20
2023-05-11T05:52:51.220Z,3.70
2023-05-11T05:55:56.295Z,3.45
2023-05-11T05:58:59.330Z,4.10
2023-05-11T06:02:03.309Z,3.50
2023-05-11T06:05:07.582Z,3.30
2023-05-11T06:08:11.700Z,2.97
2023-05-11T06:11:16.031Z,3.53
2023-05-11T06:14:19.041Z,3.50
2023-05-11T06:17:22.720Z,3.45
2023-05-11T06:20:25.796Z,3.47
2023-05-11T06:23:29.022Z,4.10
2023-05-11T06:26:33.227Z,3.50
2023-05-11T06:29:36.401Z,3.25
2023-05-11T06:32:40.833Z,3.15
2023-05-11T06:35:44.083Z,3.40
2023-05-11T06:38:49.556Z,3.33
2023-05-11T06:41:55.162Z,3.38
2023-05-11T06:44:59.468Z,3.47
2023-05-11T06:48:04.919Z,3.38
2023-05-11T06:51:11.653Z,3.58
2023-05-11T06:54:14.645Z,4.20
2023-05-11T06:57:18.035Z,3.63
2023-05-11T07:00:21.245Z,3.35
2023-05-11T07:03:24.178Z,3.45
2023-05-11T07:06:29.918Z,3.25
2023-05-11T07:09:33.297Z,3.73
2023-05-11T07:12:36.406Z,3.50
2023-05-11T07:15:39.739Z,3.40
2023-05-11T07:18:44.633Z,4.05
2023-05-11T07:21:52.429Z,3.50
2023-05-11T07:24:55.800Z,3.47
2023-05-11T07:28:01.460Z,4.28
2023-05-11T07:31:04.892Z,4.13
2023-05-11T07:34:08.030Z,3.65
2023-05-11T07:37:12.170Z,3.83
2023-05-11T07:40:15.385Z,3.20
2023-05-11T07:43:21.856Z,2.92
2023-05-11T07:46:28.210Z,4.10
2023-05-11T07:49:42.906Z,3.80
2023-05-11T07:52:46.941Z,4.00
2023-05-11T07:55:50.110Z,3.43
2023-05-11T07:58:53.157Z,3.78
2023-05-11T08:01:56.208Z,3.70
2023-05-11T08:04:59.242Z,4.13
2023-05-11T08:08:02.480Z,3.95
2023-05-11T08:11:06.053Z,9.90
2023-05-11T08:14:09.089Z,4.65
2023-05-11T08:17:12.279Z,3.15
2023-05-11T08:20:15.424Z,3.00
2023-05-11T08:23:18.628Z,3.42
2023-05-11T08:26:21.695Z,3.37
2023-05-11T08:29:27.457Z,3.75
2023-05-11T08:32:30.608Z,3.85
2023-05-11T08:35:36.471Z,4.05
2023-05-11T08:38:39.539Z,4.68
2023-05-11T08:41:43.197Z,3.07
2023-05-11T08:44:46.520Z,3.30
2023-05-11T08:47:49.869Z,3.00
2023-05-11T08:50:52.893Z,3.00
2023-05-11T08:53:57.989Z,4.35
2023-05-11T08:57:01.688Z,3.73
2023-05-11T09:00:05.399Z,3.10
2023-05-11T09:03:11.202Z,3.15
2023-05-11T09:06:14.278Z,3.60
2023-05-11T09:09:18.315Z,3.40
2023-05-11T09:12:24.509Z,3.37
2023-05-11T09:15:27.771Z,3.45
2023-05-11T09:18:30.936Z,3.58
2023-05-11T09:21:37.260Z,3.33
2023-05-11T09:24:43.207Z,3.38
2023-05-11T09:27:49.146Z,3.17
2023-05-11T09:30:52.562Z,3.30
2023-05-11T09:34:14.781Z,3.30
2023-05-11T09:37:18.744Z,3.78
2023-05-11T09:40:27.405Z,3.47
2023-05-11T09:43:36.210Z,3.40
2023-05-11T09:46:40.097Z,2.90
2023-05-11T09:49:43.957Z,3.05
2023-05-11T09:52:53.028Z,2.55
2023-05-11T09:55:56.694Z,3.20
2023-05-11T09:58:59.733Z,3.17
2023-05-11T10:02:25.399Z,2.90
2023-05-11T10:05:29.314Z,3.05
2023-05-11T10:08:35.798Z,2.97
2023-05-11T10:11:39.051Z,3.00
2023-05-11T10:14:42.115Z,3.30
2023-05-11T10:17:45.218Z,2.42
2023-05-11T10:20:48.720Z,3.20
2023-05-11T10:23:51.654Z,2.80
2023-05-11T10:26:54.738Z,3.78
2023-05-11T10:29:58.391Z,3.60
2023-05-11T10:33:01.918Z,4.15
2023-05-11T10:36:05.325Z,3.97
2023-05-11T10:39:08.318Z,3.15
2023-05-11T10:42:30.952Z,3.67
2023-05-11T10:45:55.401Z,2.70
2023-05-11T10:49:02.989Z,3.50
2023-05-11T10:52:35.349Z,3.38
2023-05-11T10:56:00.138Z,4.07
2023-05-11T10:59:44.584Z,3.42
2023-05-11T11:02:50.669Z,3.67
2023-05-11T11:05:53.907Z,3.85
2023-05-11T11:09:04.493Z,3.20
2023-05-11T11:12:10.935Z,3.78
2023-05-11T11:15:13.937Z,3.15
2023-05-11T11:18:23.985Z,3.23
2023-05-11T11:21:42.741Z,3.88
2023-05-11T11:24:46.168Z,5.03
2023-05-11T11:27:52.743Z,4.22
2023-05-11T11:31:30.354Z,4.28
2023-05-11T11:34:34.110Z,4.10
2023-05-11T11:38:04.457Z,4.75
2023-05-11T11:41:09.441Z,4.65
2023-05-11T11:44:23.142Z,2.45
2023-05-11T11:47:27.042Z,2.85
2023-05-11T11:50:30.172Z,4.80
2023-05-11T11:53:43.830Z,3.85
2023-05-11T11:56:46.911Z,3.90
2023-05-11T11:59:50.193Z,4.15
2023-05-11T12:02:53.198Z,3.60
2023-05-11T12:05:56.930Z,2.60
2023-05-11T12:08:59.939Z,4.55
2023-05-11T12:12:04.050Z,3.03
2023-05-11T12:15:07.879Z,2.80
2023-05-11T12:18:21.722Z,4.68
2023-05-11T12:21:27.551Z,3.03
2023-05-11T12:24:30.674Z,2.95
2023-05-11T12:27:33.834Z,4.50
2023-05-11T12:30:36.778Z,4.32
2023-05-11T12:33:49.446Z,2.72
2023-05-11T12:36:53.673Z,2.90
2023-05-11T12:39:57.265Z,2.95
2023-05-11T12:43:01.090Z,3.00
2023-05-11T12:46:06.516Z,2.53
2023-05-11T12:49:09.547Z,2.60
2023-05-11T12:52:13.813Z,2.77
2023-05-11T12:55:30.034Z,2.00
2023-05-11T12:58:40.109Z,2.65
2023-05-11T13:01:43.131Z,2.88
2023-05-11T13:04:46.647Z,2.70
2023-05-11T13:07:56.826Z,3.07
2023-05-11T13:11:18.110Z,2.60
2023-05-11T13:14:21.028Z,2.40
2023-05-11T13:17:31.633Z,3.00
2023-05-11T13:20:34.781Z,3.03
2023-05-11T13:23:37.813Z,3.10
2023-05-11T13:26:40.724Z,2.92
2023-05-11T13:29:43.724Z,2.97
2023-05-11T13:32:46.767Z,2.88
2023-05-11T13:35:49.769Z,2.95
2023-05-11T13:38:52.705Z,2.20
2023-05-11T13:41:56.188Z,2.42
2023-05-11T13:44:59.374Z,2.45
2023-05-11T13:48:02.340Z,2.30
2023-05-11T13:51:05.517Z,2.58
2023-05-11T13:54:08.483Z,2.40
2023-05-11T13:57:11.585Z,2.53
2023-05-11T14:00:15.266Z,2.63
2023-05-11T14:03:18.451Z,2.72
2023-05-11T14:06:24.867Z,2.63
2023-05-11T14:09:27.847Z,2.50
2023-05-11T14:12:31.168Z,2.45
2023-05-11T14:15:34.664Z,2.50
2023-05-11T14:18:37.786Z,2.47
2023-05-11T14:21:40.807Z,2.20
2023-05-11T14:24:43.968Z,2.20
2023-05-11T14:27:46.946Z,2.00
2023-05-11T14:30:49.938Z,2.40
2023-05-11T14:33:53.010Z,2.30
2023-05-11T14:36:56.797Z,2.40
2023-05-11T14:40:00.031Z,2.43
2023-05-11T14:43:02.987Z,2.28
2023-05-11T14:46:05.993Z,2.30
2023-05-11T14:49:08.917Z,2.47
2023-05-11T14:52:11.871Z,2.33
2023-05-11T14:55:14.912Z,2.57
2023-05-11T14:58:17.830Z,2.95
2023-05-11T15:01:20.894Z,2.50
2023-05-11T15:04:23.980Z,2.42
2023-05-11T15:07:27.050Z,2.20
2023-05-11T15:10:29.973Z,1.97
2023-05-11T15:13:33.018Z,2.38
2023-05-11T15:16:36.026Z,2.35
2023-05-11T15:19:39.012Z,2.00
2023-05-11T15:22:42.011Z,2.33
2023-05-11T15:25:45.386Z,2.10
2023-05-11T15:28:48.565Z,2.20
2023-05-11T15:31:51.788Z,2.13
2023-05-11T15:34:59.786Z,2.00
2023-05-11T15:38:03.718Z,2.10
2023-05-11T15:41:07.729Z,1.97
2023-05-11T15:44:10.802Z,2.50
2023-05-11T15:47:13.786Z,2.80
2023-05-11T15:50:17.332Z,2.28
2023-05-11T15:53:20.572Z,2.53
2023-05-11T15:56:23.554Z,2.37
2023-05-11T15:59:26.779Z,3.08
2023-05-11T16:02:29.879Z,2.70
2023-05-11T16:05:33.168Z,2.40
2023-05-11T16:08:36.561Z,2.20
2023-05-11T16:11:43.584Z,2.60
2023-05-11T16:14:46.519Z,2.40
2023-05-11T16:17:51.404Z,3.35
2023-05-11T16:20:54.352Z,2.55
2023-05-11T16:23:59.811Z,2.38
2023-05-11T16:27:02.859Z,2.03
2023-05-11T16:30:18.282Z,2.80
2023-05-11T16:33:25.961Z,3.10
2023-05-11T16:36:30.322Z,2.70
2023-05-11T16:39:33.464Z,2.63
2023-05-11T16:42:36.414Z,2.23
2023-05-11T16:45:39.392Z,2.60
2023-05-11T16:48:42.394Z,2.45
2023-05-11T16:51:45.411Z,3.03
2023-05-11T16:54:48.362Z,2.55
2023-05-11T16:57:51.853Z,2.27
2023-05-11T17:00:54.860Z,2.75
2023-05-11T17:03:57.965Z,3.00
2023-05-11T17:07:00.947Z,3.30
2023-05-11T17:10:04.295Z,2.30
2023-05-11T17:13:07.564Z,2.80
2023-05-11T17:16:10.477Z,2.63
2023-05-11T17:19:13.596Z,3.10
2023-05-11T17:22:16.677Z,2.35
2023-05-11T17:25:19.661Z,2.58
2023-05-11T17:28:22.621Z,2.40
2023-05-11T17:31:25.749Z,2.53
2023-05-11T17:34:29.793Z,2.90
2023-05-11T17:37:33.408Z,2.60
2023-05-11T17:40:36.566Z,2.60
2023-05-11T17:43:39.977Z,2.53
2023-05-11T17:46:43.284Z,3.75
2023-05-11T17:49:46.266Z,3.13
2023-05-11T17:52:50.816Z,3.40
2023-05-11T17:55:54.378Z,3.30
2023-05-11T17:58:57.368Z,2.70
2023-05-11T18:02:00.643Z,3.13
2023-05-11T18:05:03.841Z,2.70
2023-05-11T18:08:09.078Z,2.83
2023-05-11T18:11:12.919Z,3.20
2023-05-11T18:14:15.946Z,2.57
2023-05-11T18:17:18.932Z,2.53
2023-05-11T18:20:21.928Z,2.45
2023-05-11T18:23:24.862Z,2.97
2023-05-11T18:26:27.839Z,2.47
2023-05-11T18:29:30.902Z,2.37
2023-05-11T18:32:33.902Z,1.98
2023-05-11T18:35:39.121Z,2.20
2023-05-11T18:38:43.499Z,2.35
2023-05-11T18:41:46.500Z,2.30
2023-05-11T18:44:52.648Z,2.40
2023-05-11T18:47:55.666Z,2.50
2023-05-11T18:50:58.583Z,2.50
2023-05-11T18:54:02.068Z,2.35
2023-05-11T18:57:05.953Z,2.40
2023-05-11T19:00:10.380Z,2.50
2023-05-11T19:03:15.073Z,2.45
2023-05-11T19:06:18.281Z,2.58
2023-05-11T19:09:22.378Z,2.42
2023-05-11T19:12:25.364Z,2.38
2023-05-11T19:15:28.641Z,2.50
2023-05-11T19:18:35.395Z,2.67
2023-05-11T19:21:43.340Z,2.97
2023-05-11T19:24:46.392Z,2.40
2023-05-11T19:27:49.381Z,2.15
2023-05-11T19:31:05.459Z,2.17
2023-05-11T19:34:08.422Z,2.42
2023-05-11T19:37:11.428Z,2.15
2023-05-11T19:43:23.672Z,2.70
2023-05-11T19:46:27.112Z,1.97
2023-05-11T19:49:30.046Z,2.65
2023-05-11T19:52:32.963Z,2.53
2023-05-11T19:55:35.962Z,2.63
2023-05-11T19:58:38.909Z,2.67
2023-05-11T20:01:42.001Z,2.40
2023-05-11T20:04:46.538Z,2.20
2023-05-11T20:07:49.945Z,2.58
2023-05-11T20:10:52.921Z,2.78
2023-05-11T20:13:55.885Z,2.70
2023-05-11T20:16:58.794Z,2.60
2023-05-11T20:20:02.404Z,2.28
2023-05-11T20:23:05.453Z,2.35
2023-05-11T20:26:08.410Z,2.72
2023-05-11T20:29:11.316Z,2.50
2023-05-11T20:32:14.253Z,3.10
2023-05-11T20:35:17.778Z,2.85
2023-05-11T20:38:20.950Z,2.50
2023-05-11T20:41:23.984Z,2.45
2023-05-11T20:44:27.337Z,2.85
2023-05-11T20:47:30.450Z,3.67
2023-05-11T20:50:34.007Z,3.33
2023-05-11T20:53:37.057Z,3.20
2023-05-11T20:56:40.090Z,2.80
2023-05-11T21:02:49.080Z,2.50
2023-05-11T21:05:52.149Z,3.38
2023-05-11T21:08:56.083Z,2.97
2023-05-11T21:11:59.047Z,3.15
2023-05-11T21:15:02.105Z,2.60
2023-05-11T21:18:05.323Z,2.60
2023-05-11T21:21:09.208Z,2.58
2023-05-11T21:24:13.969Z,2.78
2023-05-11T21:27:17.267Z,2.55
2023-05-11T21:30:21.142Z,3.60
2023-05-11T21:33:24.453Z,2.67
2023-05-11T21:36:28.355Z,2.50
2023-05-11T21:39:31.385Z,2.90
2023-05-11T21:42:36.230Z,2.35
2023-05-11T21:45:39.206Z,2.80
2023-05-11T21:48:42.413Z,2.43
2023-05-11T21:51:45.410Z,3.00
2023-05-11T21:54:48.422Z,2.78
2023-05-11T21:57:51.543Z,2.40
2023-05-11T22:00:56.268Z,2.60
2023-05-11T22:04:01.147Z,3.07
2023-05-11T22:07:04.354Z,3.20
2023-05-11T22:10:07.986Z,3.60
2023-05-11T22:13:10.964Z,2.58
2023-05-11T22:16:14.131Z,2.80
2023-05-11T22:19:17.104Z,3.33
2023-05-11T22:22:20.084Z,3.10
2023-05-11T22:25:23.235Z,3.38
2023-05-11T22:28:26.158Z,2.95
2023-05-11T22:31:29.110Z,3.03
2023-05-11T22:34:32.075Z,3.10
2023-05-11T22:37:35.019Z,2.75
2023-05-11T22:40:37.966Z,3.15
2023-05-11T22:43:40.877Z,2.70
2023-05-11T22:46:43.823Z,2.90
2023-05-11T22:49:47.044Z,2.70
2023-05-11T22:52:50.037Z,2.50
2023-05-11T22:55:52.988Z,3.13
2023-05-11T22:58:59.770Z,2.72
2023-05-11T23:02:04.140Z,2.55
2023-05-11T23:05:07.670Z,2.70
2023-05-11T23:08:10.833Z,2.58
2023-05-11T23:11:13.749Z,2.60
2023-05-11T23:14:16.760Z,2.00
2023-05-11T23:17:21.271Z,2.45
2023-05-11T23:20:24.307Z,2.37
2023-05-11T23:23:27.269Z,2.35
2023-05-11T23:26:30.166Z,2.33
2023-05-11T23:29:33.197Z,2.53
2023-05-11T23:32:36.234Z,2.63
2023-05-11T23:35:39.230Z,2.70
2023-05-11T23:38:42.136Z,2.53
2023-05-11T23:41:45.202Z,2.85
2023-05-11T23:44:48.140Z,2.67
2023-05-11T23:47:51.694Z,2.55
2023-05-11T23:50:54.889Z,2.47
2023-05-11T23:53:57.860Z,2.95
2023-05-11T23:57:02.101Z,2.80
